Time;durP1;ratioP1;P1;durP2;ratioP2;P2;SDS_P1;SDS_P2;PMS_P1;PMS_P2;Temp;Humidity;BMP_temperature;BMP_pressure;BME280_temperature;BME280_humidity;BME280_pressure;Samples;Min_cycle;Max_cycle;Signal;HPM_P1;HPM_P2
2023/08/12 00:03:21;;;;;;;7.60;6.70;;;;;;;15.26;76.92;99391.89;221514;1304;22623;-73
2023/08/12 00:08:23;;;;;;;10.60;8.10;;;;;;;15.19;77.16;99393.50;221163;1304;22557;-75
2023/08/12 00:13:25;;;;;;;10.90;8.90;;;;;;;15.12;77.58;99388.05;221529;1305;22602;-73
2023/08/12 00:18:28;;;;;;;10.10;8.30;;;;;;;15.05;78.02;99392.57;221589;1305;24278;-73
2023/08/12 00:23:30;;;;;;;10.40;8.40;;;;;;;14.94;78.26;99386.73;221512;1305;22573;-74
2023/08/12 00:28:33;;;;;;;11.30;8.80;;;;;;;14.83;78.61;99384.49;221554;1301;22595;-74
2023/08/12 00:33:35;;;;;;;10.00;8.70;;;;;;;14.73;78.93;99387.48;221540;1304;23483;-73
2023/08/12 00:38:38;;;;;;;8.60;7.20;;;;;;;14.66;79.22;99387.93;221596;1305;22564;-73
2023/08/12 00:43:40;;;;;;;9.80;6.70;;;;;;;14.58;79.35;99386.75;221486;1305;22573;-73
2023/08/12 00:48:42;;;;;;;8.80;4.50;;;;;;;14.45;79.28;99386.39;221425;1306;22557;-74
2023/08/12 00:53:46;;;;;;;7.90;6.80;;;;;;;14.33;79.25;99386.48;221615;1305;22598;-73
2023/08/12 00:58:49;;;;;;;7.50;6.50;;;;;;;14.26;79.74;99379.77;221581;1301;24259;-74
2023/08/12 01:03:51;;;;;;;9.00;8.10;;;;;;;14.21;79.94;99379.20;221503;1306;22669;-73
2023/08/12 01:08:54;;;;;;;10.10;9.00;;;;;;;14.16;80.23;99377.67;221211;1306;22587;-74
2023/08/12 01:14:03;;;;;;;11.90;10.10;;;;;;;14.12;80.64;99372.70;221481;1303;22599;-73
2023/08/12 01:19:10;;;;;;;13.00;9.60;;;;;;;14.08;80.90;99374.63;221455;1296;22597;-74
2023/08/12 01:24:12;;;;;;;15.40;10.60;;;;;;;14.05;81.16;99382.00;221467;1304;24306;-74
2023/08/12 01:29:14;;;;;;;13.70;9.80;;;;;;;14.01;81.31;99376.94;221432;1306;22588;-73
2023/08/12 01:34:29;;;;;;;10.10;8.20;;;;;;;13.97;81.17;99387.58;221488;1307;22582;-74
2023/08/12 01:39:33;;;;;;;10.00;8.80;;;;;;;13.91;81.46;99393.08;221498;1306;22580;-73
2023/08/12 01:44:35;;;;;;;10.50;9.10;;;;;;;13.85;81.78;99389.58;221452;1301;22581;-72
2023/08/12 01:49:37;;;;;;;8.70;7.30;;;;;;;13.81;81.71;99383.79;221432;1305;22565;-73
2023/08/12 01:54:39;;;;;;;9.90;8.80;;;;;;;13.76;82.33;99392.02;221254;1306;22569;-72
2023/08/12 01:59:43;;;;;;;9.10;7.70;;;;;;;13.70;82.19;99394.10;221465;1301;22559;-72
2023/08/12 02:04:45;;;;;;;8.10;7.00;;;;;;;13.63;82.22;99398.62;221505;1306;22580;-74
2023/08/12 02:09:47;;;;;;;9.00;7.80;;;;;;;13.57;82.17;99405.10;221563;1306;22599;-73
2023/08/12 02:14:49;;;;;;;9.60;8.00;;;;;;;13.52;82.43;99411.20;221484;1305;22561;-73
2023/08/12 02:19:51;;;;;;;10.90;8.20;;;;;;;13.46;82.61;99407.84;221321;1305;22568;-73
2023/08/12 02:24:54;;;;;;;10.20;8.50;;;;;;;13.41;82.50;99405.29;221519;1305;22575;-73
2023/08/12 02:29:56;;;;;;;10.30;8.50;;;;;;;13.36;82.74;99407.45;221533;1305;25484;-73
2023/08/12 02:34:58;;;;;;;10.70;9.20;;;;;;;13.33;82.95;99414.91;221527;1302;22586;-72
2023/08/12 02:40:00;;;;;;;12.00;9.90;;;;;;;13.30;82.93;99413.77;221349;1304;22568;-73
2023/08/12 02:45:03;;;;;;;10.40;8.70;;;;;;;13.26;82.96;99405.92;221505;1292;22614;-73
2023/08/12 02:50:06;;;;;;;10.70;8.50;;;;;;;13.20;82.86;99401.80;221483;1299;22577;-74
2023/08/12 02:55:08;;;;;;;9.40;8.40;;;;;;;13.14;83.02;99395.88;221544;1292;22584;-74
2023/08/12 03:00:12;;;;;;;10.00;9.00;;;;;;;13.09;82.87;99389.80;221306;1305;22598;-73
2023/08/12 03:05:14;;;;;;;12.50;10.50;;;;;;;13.04;83.24;99387.44;221621;1305;22553;-73
2023/08/12 03:10:16;;;;;;;14.60;11.60;;;;;;;12.99;83.25;99387.44;221637;1299;22552;-73
2023/08/12 03:15:19;;;;;;;12.30;11.00;;;;;;;12.95;83.27;99392.36;221493;1304;22608;-73
2023/08/12 03:20:21;;;;;;;13.70;11.90;;;;;;;12.93;83.40;99402.51;221193;1305;25500;-73
2023/08/12 03:25:24;;;;;;;17.00;12.10;;;;;;;12.92;83.60;99399.75;221271;1305;22595;-72
2023/08/12 03:30:26;;;;;;;14.20;12.20;;;;;;;12.93;83.75;99398.13;221554;1305;24248;-73
2023/08/12 03:35:29;;;;;;;12.90;11.30;;;;;;;12.94;83.83;99405.77;221522;1304;22561;-73
2023/08/12 03:40:31;;;;;;;16.70;12.00;;;;;;;12.96;83.79;99404.32;221550;1301;22587;-74
2023/08/12 03:45:44;;;;;;;14.90;12.60;;;;;;;12.97;83.55;99394.92;221598;1292;22576;-73
2023/08/12 03:50:49;;;;;;;15.80;12.40;;;;;;;12.99;83.71;99396.29;221535;1301;22569;-73
2023/08/12 03:55:50;;;;;;;16.20;13.00;;;;;;;13.03;83.80;99395.81;221607;1302;22572;-73
2023/08/12 04:00:53;;;;;;;12.60;10.70;;;;;;;13.09;83.88;99395.27;221614;1301;24407;-73
2023/08/12 04:05:55;;;;;;;14.60;12.80;;;;;;;13.17;83.96;99388.98;221694;1293;22568;-73
2023/08/12 04:10:57;;;;;;;14.90;12.40;;;;;;;13.26;83.94;99391.52;221689;1302;23088;-73
2023/08/12 04:15:59;;;;;;;13.90;12.50;;;;;;;13.37;84.01;99387.54;221620;1298;24221;-73
2023/08/12 04:21:01;;;;;;;15.30;13.30;;;;;;;13.48;84.00;99384.41;221538;1304;22565;-73
2023/08/12 04:26:04;;;;;;;17.20;15.30;;;;;;;13.60;84.16;99384.46;221621;1282;22594;-74
2023/08/12 04:31:09;;;;;;;19.20;16.30;;;;;;;13.76;84.27;99381.89;221180;1305;22589;-73
2023/08/12 04:36:14;;;;;;;18.70;16.80;;;;;;;13.94;84.45;99381.06;221332;1285;22573;-73
2023/08/12 04:41:16;;;;;;;19.60;16.80;;;;;;;14.14;84.38;99384.54;221264;1306;22647;-73
2023/08/12 04:46:18;;;;;;;18.80;15.70;;;;;;;14.33;84.25;99381.53;221539;1282;22565;-73
2023/08/12 04:51:21;;;;;;;20.20;16.70;;;;;;;14.52;84.30;99378.94;221520;1298;22636;-74
2023/08/12 04:56:24;;;;;;;19.30;16.60;;;;;;;14.75;84.17;99384.11;221394;1294;22560;-74
2023/08/12 05:01:26;;;;;;;17.40;14.50;;;;;;;14.99;84.11;99393.22;221304;1302;22559;-74
2023/08/12 05:06:29;;;;;;;13.50;12.10;;;;;;;15.25;83.50;99396.20;221497;1304;22560;-74
2023/08/12 05:11:31;;;;;;;13.10;11.70;;;;;;;15.48;83.05;99398.90;221461;1285;22576;-74
2023/08/12 05:16:34;;;;;;;20.60;13.00;;;;;;;15.64;82.83;99397.38;221479;1295;22554;-75
2023/08/12 05:21:36;;;;;;;12.60;11.30;;;;;;;15.80;82.55;99397.20;221571;1305;22565;-75
2023/08/12 05:26:38;;;;;;;12.70;10.90;;;;;;;15.96;82.22;99395.59;221255;1302;22727;-74
2023/08/12 05:31:40;;;;;;;11.90;10.10;;;;;;;16.12;81.94;99394.86;221261;1305;22565;-74
2023/08/12 05:36:42;;;;;;;10.80;9.50;;;;;;;16.26;81.60;99397.95;221428;1283;22591;-74
2023/08/12 05:41:44;;;;;;;12.50;10.30;;;;;;;16.36;81.22;99391.34;221571;1305;25421;-74
2023/08/12 05:46:46;;;;;;;12.70;9.60;;;;;;;16.44;80.93;99393.38;221481;1299;22567;-74
2023/08/12 05:51:48;;;;;;;11.20;10.10;;;;;;;16.58;80.63;99394.84;221567;1299;22567;-73
2023/08/12 05:56:50;;;;;;;11.60;9.30;;;;;;;16.75;80.57;99396.39;221487;1304;22585;-74
2023/08/12 06:01:54;;;;;;;12.30;9.90;;;;;;;16.93;80.33;99394.79;221479;1304;22572;-73
2023/08/12 06:06:56;;;;;;;10.60;9.50;;;;;;;17.14;80.53;99394.16;221464;1304;22602;-73
2023/08/12 06:11:57;;;;;;;10.40;9.30;;;;;;;17.33;79.87;99386.64;221508;1298;22573;-74
2023/08/12 06:16:59;;;;;;;12.60;9.80;;;;;;;17.50;79.59;99388.70;221549;1283;22572;-72
2023/08/12 06:22:03;;;;;;;11.50;9.80;;;;;;;17.68;79.34;99391.38;221485;1298;22595;-73
2023/08/12 06:27:05;;;;;;;11.10;9.10;;;;;;;17.86;79.01;99390.52;221498;1302;22590;-75
2023/08/12 06:32:07;;;;;;;12.10;9.50;;;;;;;18.04;78.85;99390.95;221520;1301;22561;-73
2023/08/12 06:37:09;;;;;;;12.90;10.20;;;;;;;18.21;78.61;99387.85;221499;1292;23044;-76
2023/08/12 06:42:11;;;;;;;12.40;9.80;;;;;;;18.43;78.30;99382.43;221070;1301;22584;-73
2023/08/12 06:47:13;;;;;;;14.10;10.50;;;;;;;18.64;78.08;99385.56;221290;1301;22574;-74
2023/08/12 06:52:16;;;;;;;11.70;9.50;;;;;;;18.85;77.64;99381.02;221265;1303;24400;-75
2023/08/12 06:57:18;;;;;;;10.80;7.70;;;;;;;19.05;77.34;99378.80;221309;1299;22552;-74
2023/08/12 07:02:19;;;;;;;11.50;7.20;;;;;;;19.21;76.50;99381.11;220999;1298;22623;-74
2023/08/12 07:07:22;;;;;;;10.20;7.00;;;;;;;19.38;76.04;99385.02;220968;1283;24625;-74
2023/08/12 07:12:24;;;;;;;8.80;7.00;;;;;;;19.55;75.98;99384.11;220889;1292;23181;-74
2023/08/12 07:17:25;;;;;;;7.00;5.80;;;;;;;19.77;75.88;99379.09;220624;1301;22955;-76
2023/08/12 07:22:28;;;;;;;7.00;5.10;;;;;;;20.02;75.34;99374.11;220951;1302;25422;-75
2023/08/12 07:27:30;;;;;;;8.10;4.80;;;;;;;20.25;75.06;99374.30;221160;1286;22576;-76
2023/08/12 07:32:31;;;;;;;4.90;4.40;;;;;;;20.50;74.35;99366.97;221057;1302;23616;-75
2023/08/12 07:37:34;;;;;;;5.40;4.40;;;;;;;20.77;73.82;99364.80;220956;1292;22587;-73
2023/08/12 07:42:36;;;;;;;5.60;4.40;;;;;;;21.03;73.11;99363.83;221125;1305;22593;-73
2023/08/12 07:47:38;;;;;;;5.10;4.20;;;;;;;21.24;72.21;99364.71;221183;1304;22678;-75
2023/08/12 07:52:41;;;;;;;5.50;3.80;;;;;;;21.43;71.41;99372.64;221028;1305;22678;-75
2023/08/12 07:57:44;;;;;;;5.20;3.70;;;;;;;21.62;70.74;99365.84;221311;1304;22568;-76
2023/08/12 08:02:46;;;;;;;4.70;3.80;;;;;;;21.85;70.27;99364.08;221102;1301;22592;-77
2023/08/12 08:07:48;;;;;;;6.60;4.40;;;;;;;22.04;69.58;99354.80;221049;1305;23159;-77
2023/08/12 08:12:51;;;;;;;4.20;3.60;;;;;;;22.23;68.89;99350.59;221019;1298;22593;-76
2023/08/12 08:17:53;;;;;;;4.70;3.90;;;;;;;22.46;68.74;99343.44;221226;1304;22634;-77
2023/08/12 08:22:56;;;;;;;4.40;3.60;;;;;;;22.69;68.00;99342.80;221213;1302;22987;-77
2023/08/12 08:27:58;;;;;;;4.40;3.60;;;;;;;22.88;67.29;99341.73;221090;1300;22569;-76
2023/08/12 08:33:00;;;;;;;3.80;3.40;;;;;;;23.10;66.88;99340.42;221305;1303;22598;-76
2023/08/12 08:38:02;;;;;;;4.70;3.80;;;;;;;23.27;66.27;99344.89;221221;1302;22627;-76
2023/08/12 08:43:07;;;;;;;5.90;3.50;;;;;;;23.47;65.88;99340.85;221298;1302;23524;-75
2023/08/12 08:48:11;;;;;;;5.60;3.50;;;;;;;23.56;64.06;99336.42;221241;1305;22642;-77
2023/08/12 08:53:15;;;;;;;3.60;3.00;;;;;;;23.66;64.23;99335.56;220942;1305;22674;-77
2023/08/12 08:58:18;;;;;;;3.80;3.30;;;;;;;23.82;63.62;99332.92;221244;1302;22569;-76
2023/08/12 09:03:25;;;;;;;4.00;3.10;;;;;;;23.98;63.01;99331.60;221273;1305;22567;-75
2023/08/12 09:08:31;;;;;;;3.80;3.50;;;;;;;24.15;62.60;99332.92;221160;1298;22562;-75
2023/08/12 09:13:33;;;;;;;3.90;3.60;;;;;;;24.36;62.36;99323.17;220982;1291;22640;-76
2023/08/12 09:18:36;;;;;;;15.30;7.00;;;;;;;24.49;61.28;99319.64;221142;1298;22648;-75
2023/08/12 09:23:39;;;;;;;4.00;3.70;;;;;;;24.60;60.73;99316.98;221251;1298;22573;-76
2023/08/12 09:28:45;;;;;;;4.80;3.00;;;;;;;24.74;60.19;99313.88;221138;1301;22565;-75
2023/08/12 09:33:48;;;;;;;3.80;3.40;;;;;;;24.86;59.82;99304.11;221221;1285;22591;-79
2023/08/12 09:38:51;;;;;;;3.70;3.30;;;;;;;25.01;59.88;99299.13;221275;1299;22685;-81
2023/08/12 09:43:53;;;;;;;4.50;3.80;;;;;;;25.11;58.64;99299.13;221102;1305;22565;-81
2023/08/12 09:48:55;;;;;;;3.70;3.40;;;;;;;25.15;58.42;99306.61;221307;1305;22573;-81
2023/08/12 09:53:57;;;;;;;3.40;3.10;;;;;;;25.18;57.59;99301.69;221265;1304;22568;-81
2023/08/12 09:59:02;;;;;;;6.20;4.00;;;;;;;25.30;58.26;99298.05;221281;1298;22577;-81
2023/08/12 10:04:11;;;;;;;7.40;4.10;;;;;;;25.48;58.16;99291.39;221372;1282;22669;-80
2023/08/12 10:09:15;;;;;;;3.60;3.30;;;;;;;25.72;58.14;99287.42;221258;1305;22576;-79
2023/08/12 10:14:17;;;;;;;4.10;3.60;;;;;;;25.86;57.45;99282.40;221254;1304;25948;-76
2023/08/12 10:19:21;;;;;;;6.30;3.40;;;;;;;26.03;57.80;99277.04;221255;1292;23788;-75
2023/08/12 10:24:24;;;;;;;3.90;3.30;;;;;;;26.14;56.70;99267.60;221372;1304;22624;-74
2023/08/12 10:29:26;;;;;;;4.30;3.70;;;;;;;26.19;56.33;99264.98;221264;1304;23057;-77
2023/08/12 10:34:28;;;;;;;5.10;3.60;;;;;;;26.32;56.72;99260.63;221042;1303;22792;-76
2023/08/12 10:39:34;;;;;;;4.60;3.20;;;;;;;26.49;56.89;99256.19;221217;1283;23725;-77
2023/08/12 10:44:51;;;;;;;3.60;3.30;;;;;;;26.58;55.55;99255.20;221236;1305;22568;-75
2023/08/12 10:49:53;;;;;;;3.20;3.00;;;;;;;26.53;54.70;99248.59;221034;1305;153550;-75
2023/08/12 10:55:16;;;;;;;3.90;3.20;;;;;;;26.54;54.42;99249.98;221328;1299;25271;-76
2023/08/12 11:00:29;;;;;;;4.40;3.40;;;;;;;26.57;53.89;99248.22;221254;1298;23506;-76
2023/08/12 11:05:38;;;;;;;5.50;3.20;;;;;;;26.66;54.64;99240.63;220867;1282;22630;-75
2023/08/12 11:10:40;;;;;;;3.20;2.90;;;;;;;26.80;54.22;99238.31;221006;1305;22919;-76
2023/08/12 11:15:49;;;;;;;3.20;2.80;;;;;;;26.95;54.04;99234.63;221568;1304;22586;-76
2023/08/12 11:20:51;;;;;;;3.50;3.20;;;;;;;27.05;53.66;99228.04;221218;1305;22583;-76
2023/08/12 11:25:53;;;;;;;3.20;3.00;;;;;;;27.16;53.67;99218.02;220814;1298;24159;-76
2023/08/12 11:30:55;;;;;;;3.70;3.40;;;;;;;27.26;53.47;99215.74;221097;1301;22568;-76
2023/08/12 11:35:58;;;;;;;3.90;3.50;;;;;;;27.31;53.16;99215.42;221183;1304;22568;-76
2023/08/12 11:41:02;;;;;;;4.40;3.60;;;;;;;27.39;53.20;99211.31;221623;1302;22568;-76
2023/08/12 11:46:04;;;;;;;3.20;3.00;;;;;;;27.54;53.60;99204.59;221683;1301;22569;-76
2023/08/12 11:51:06;;;;;;;4.90;3.40;;;;;;;27.63;52.62;99198.10;221661;1292;22592;-77
2023/08/12 11:56:08;;;;;;;3.20;3.00;;;;;;;27.79;53.32;99186.73;221625;1298;25475;-76
2023/08/12 12:01:10;;;;;;;3.40;2.90;;;;;;;27.95;52.34;99182.02;221508;1305;22569;-77
2023/08/12 12:06:12;;;;;;;3.60;3.00;;;;;;;27.98;51.71;99178.70;221350;1301;22588;-78
2023/08/12 12:11:15;;;;;;;3.40;3.10;;;;;;;28.08;51.79;99177.81;221529;1300;22553;-77
2023/08/12 12:16:16;;;;;;;4.30;2.70;;;;;;;28.12;51.31;99175.53;221659;1301;22595;-76
2023/08/12 12:21:22;;;;;;;3.20;2.90;;;;;;;28.06;50.93;99166.96;221652;1305;22591;-77
2023/08/12 12:26:25;;;;;;;3.00;2.80;;;;;;;28.12;51.22;99168.36;221354;1301;25963;-77
2023/08/12 12:31:26;;;;;;;2.90;2.70;;;;;;;28.20;51.18;99162.66;221569;1289;22589;-76
2023/08/12 12:36:28;;;;;;;3.00;2.70;;;;;;;28.31;50.96;99156.75;221331;1305;22611;-76
2023/08/12 12:41:31;;;;;;;2.80;2.60;;;;;;;28.41;50.92;99150.17;221461;1304;25507;-76
2023/08/12 12:46:33;;;;;;;3.00;2.70;;;;;;;28.51;50.46;99143.05;221576;1304;22601;-76
2023/08/12 12:51:35;;;;;;;2.80;2.60;;;;;;;28.61;50.79;99140.34;221395;1304;25310;-75
2023/08/12 12:56:37;;;;;;;2.30;2.10;;;;;;;28.73;50.48;99132.36;221510;1304;22568;-77
2023/08/12 13:01:41;;;;;;;2.80;1.80;;;;;;;28.72;48.22;99128.45;221535;1303;23196;-76
2023/08/12 13:06:44;;;;;;;4.80;2.10;;;;;;;28.70;48.81;99120.44;221492;1303;22572;-75
2023/08/12 13:11:45;;;;;;;2.90;2.00;;;;;;;28.78;48.68;99113.77;221529;1301;22582;-76
2023/08/12 13:16:47;;;;;;;4.10;2.10;;;;;;;28.80;48.18;99114.80;221316;1301;22579;-76
2023/08/12 13:21:50;;;;;;;3.00;2.20;;;;;;;28.79;48.47;99107.58;221518;1282;22726;-76
2023/08/12 13:26:54;;;;;;;2.40;2.20;;;;;;;28.82;48.50;99100.95;221213;1305;22579;-76
2023/08/12 13:31:56;;;;;;;3.00;2.30;;;;;;;28.83;48.40;99094.67;221294;1298;22560;-75
2023/08/12 13:36:58;;;;;;;2.30;2.10;;;;;;;28.76;47.42;99090.70;221356;1301;22569;-77
2023/08/12 13:42:00;;;;;;;4.50;2.10;;;;;;;28.71;48.17;99090.28;221586;1298;22599;-75
2023/08/12 13:47:02;;;;;;;2.30;2.10;;;;;;;28.75;48.22;99086.47;221599;1303;22576;-76
2023/08/12 13:52:04;;;;;;;2.20;2.10;;;;;;;28.85;48.29;99085.94;221619;1302;22572;-76
2023/08/12 13:57:06;;;;;;;3.60;2.10;;;;;;;28.89;48.30;99082.11;221565;1303;22694;-75
2023/08/12 14:02:08;;;;;;;2.00;1.90;;;;;;;28.98;48.34;99076.77;221568;1298;22565;-76
2023/08/12 14:07:09;;;;;;;2.50;2.30;;;;;;;29.01;47.58;99070.88;221510;1301;23031;-76
2023/08/12 14:12:11;;;;;;;2.20;2.00;;;;;;;28.97;47.11;99068.17;221546;1298;22573;-76
2023/08/12 14:17:16;;;;;;;2.40;2.30;;;;;;;28.94;47.51;99062.54;221557;1305;23876;-76
2023/08/12 14:22:18;;;;;;;2.30;2.10;;;;;;;28.92;47.89;99057.14;221615;1301;22569;-76
2023/08/12 14:27:20;;;;;;;2.40;2.20;;;;;;;28.93;47.80;99054.28;221496;1304;22568;-78
2023/08/12 14:32:22;;;;;;;2.20;2.00;;;;;;;28.98;47.68;99047.25;221507;1304;22585;-77
2023/08/12 14:37:24;;;;;;;2.60;2.20;;;;;;;29.05;47.00;99045.23;221510;1302;22584;-76
2023/08/12 14:42:26;;;;;;;2.40;2.20;;;;;;;29.04;46.56;99038.65;221474;1301;22597;-76
2023/08/12 14:47:27;;;;;;;2.70;2.50;;;;;;;29.05;46.80;99029.13;221355;1301;22702;-75
2023/08/12 14:52:30;;;;;;;5.00;4.50;;;;;;;29.02;46.70;99024.51;221622;1304;22730;-76
2023/08/12 14:57:32;;;;;;;2.30;2.20;;;;;;;28.99;46.80;99016.88;221578;1304;22579;-77
2023/08/12 15:02:34;;;;;;;3.00;2.40;;;;;;;29.03;47.09;99020.29;221488;1295;22557;-77
2023/08/12 15:07:36;;;;;;;2.30;2.10;;;;;;;29.03;46.19;99017.77;221586;1305;22596;-77
2023/08/12 15:12:38;;;;;;;2.20;2.00;;;;;;;29.00;45.70;99011.95;221550;1305;22573;-77
2023/08/12 15:17:40;;;;;;;14.50;13.00;;;;;;;28.96;45.59;99005.98;221559;1306;22603;-77
2023/08/12 15:22:43;;;;;;;2.80;2.60;;;;;;;28.93;46.28;99004.27;221560;1304;22575;-76
2023/08/12 15:27:45;;;;;;;3.30;2.20;;;;;;;28.88;46.32;98995.22;221524;1305;22643;-77
2023/08/12 15:32:46;;;;;;;4.40;2.20;;;;;;;28.89;46.57;98992.23;221512;1299;22568;-77
2023/08/12 15:37:49;;;;;;;2.80;2.10;;;;;;;28.86;46.03;98993.69;221572;1302;22560;-75
2023/08/12 15:42:51;;;;;;;2.40;2.20;;;;;;;28.82;46.35;98989.30;221219;1304;22568;-76
2023/08/12 15:47:54;;;;;;;2.80;2.60;;;;;;;28.81;46.41;98990.25;221554;1302;22635;-75
2023/08/12 15:52:56;;;;;;;4.50;2.60;;;;;;;28.79;46.66;98986.14;221543;1292;22575;-76
2023/08/12 15:57:58;;;;;;;2.50;2.30;;;;;;;28.73;46.88;98986.41;221520;1304;22620;-76
2023/08/12 16:03:00;;;;;;;4.70;2.90;;;;;;;28.66;47.23;98987.69;221519;1301;22598;-75
2023/08/12 16:08:03;;;;;;;3.00;2.70;;;;;;;28.59;47.30;98990.98;221548;1301;23350;-75
2023/08/12 16:13:07;;;;;;;3.30;3.00;;;;;;;28.51;47.31;98986.89;221537;1304;22586;-76
2023/08/12 16:18:09;;;;;;;2.60;2.40;;;;;;;28.42;47.48;98983.08;221332;1304;22572;-76
2023/08/12 16:23:11;;;;;;;2.70;2.50;;;;;;;28.30;47.42;98985.26;221517;1298;22622;-76
2023/08/12 16:28:13;;;;;;;2.70;2.10;;;;;;;28.17;47.67;98985.62;221635;1301;22562;-76
2023/08/12 16:33:15;;;;;;;4.70;2.80;;;;;;;28.04;47.83;98985.13;221297;1304;22651;-76
2023/08/12 16:38:19;;;;;;;4.30;2.90;;;;;;;27.91;48.23;98981.70;221532;1303;24450;-76
2023/08/12 16:43:21;;;;;;;3.30;2.90;;;;;;;27.79;48.51;98979.89;221320;1302;22611;-77
2023/08/12 16:48:23;;;;;;;4.90;2.90;;;;;;;27.67;48.75;98976.48;221460;1304;22571;-76
2023/08/12 16:53:25;;;;;;;2.90;2.70;;;;;;;27.53;49.08;98970.54;221602;1301;22587;-76
2023/08/12 16:58:27;;;;;;;4.70;2.80;;;;;;;27.40;49.68;98972.89;221549;1304;25508;-76
2023/08/12 17:03:29;;;;;;;3.20;2.70;;;;;;;27.26;49.83;98969.02;221514;1305;23394;-76
2023/08/12 17:08:31;;;;;;;5.60;3.00;;;;;;;27.12;50.03;98970.57;221481;1304;22565;-76
2023/08/12 17:13:33;;;;;;;3.70;2.60;;;;;;;26.93;50.30;98967.42;221559;1288;22587;-76
2023/08/12 17:18:35;;;;;;;3.20;2.90;;;;;;;26.71;50.86;98961.70;221487;1305;22685;-75
2023/08/12 17:23:37;;;;;;;3.70;3.30;;;;;;;26.52;51.33;98962.35;221326;1295;22576;-76
2023/08/12 17:28:39;;;;;;;6.40;3.30;;;;;;;26.34;51.67;98967.63;221211;1301;22576;-76
2023/08/12 17:33:41;;;;;;;3.00;2.70;;;;;;;26.16;51.93;98963.56;221489;1305;22600;-76
2023/08/12 17:38:43;;;;;;;5.10;3.20;;;;;;;25.98;52.69;98964.27;221500;1305;22596;-76
2023/08/12 17:43:46;;;;;;;3.50;3.10;;;;;;;25.78;53.10;98963.27;221287;1305;24242;-76
2023/08/12 17:48:48;;;;;;;3.60;3.30;;;;;;;25.56;53.50;98964.02;221505;1305;22573;-75
2023/08/12 17:53:50;;;;;;;7.10;3.70;;;;;;;25.32;53.90;98967.08;221467;1304;24256;-76
2023/08/12 17:58:53;;;;;;;4.50;3.70;;;;;;;25.08;54.30;98969.53;221520;1304;22961;-75
2023/08/12 18:03:54;;;;;;;4.30;3.50;;;;;;;24.83;54.72;98972.97;221546;1305;22568;-77
2023/08/12 18:08:58;;;;;;;5.70;4.00;;;;;;;24.57;55.21;98981.31;221280;1306;22601;-76
2023/08/12 18:14:00;;;;;;;5.00;4.30;;;;;;;24.31;55.64;98983.63;221538;1303;22576;-76
2023/08/12 18:19:02;;;;;;;4.20;3.80;;;;;;;24.04;56.03;98985.25;221622;1302;22576;-76
2023/08/12 18:24:04;;;;;;;5.80;5.20;;;;;;;23.79;56.51;98992.32;221506;1303;22632;-75
2023/08/12 18:29:07;;;;;;;9.40;5.30;;;;;;;23.54;56.90;98992.54;221326;1304;23050;-75
2023/08/12 18:34:09;;;;;;;15.10;5.20;;;;;;;23.30;57.25;98998.02;221534;1299;22706;-76
2023/08/12 18:39:11;;;;;;;16.00;5.90;;;;;;;23.08;57.59;99004.36;221543;1301;22601;-77
2023/08/12 18:44:13;;;;;;;12.40;5.30;;;;;;;22.86;58.17;99005.17;221505;1301;22559;-75
2023/08/12 18:49:15;;;;;;;8.70;5.10;;;;;;;22.64;58.62;99001.54;221238;1304;25319;-75
2023/08/12 18:54:16;;;;;;;8.10;4.40;;;;;;;22.44;59.02;99006.80;221495;1303;22580;-75
2023/08/12 18:59:19;;;;;;;10.60;5.40;;;;;;;22.25;59.47;99016.89;221538;1304;22601;-75
2023/08/12 19:04:24;;;;;;;4.90;4.40;;;;;;;22.06;59.95;99018.41;221446;1303;22583;-76
2023/08/12 19:09:26;;;;;;;8.10;4.50;;;;;;;21.88;60.37;99021.40;221417;1299;22593;-76
2023/08/12 19:14:28;;;;;;;6.80;4.90;;;;;;;21.71;60.95;99024.67;221511;1305;22583;-76
2023/08/12 19:19:31;;;;;;;5.20;4.40;;;;;;;21.55;61.41;99029.31;221000;1307;22573;-76
2023/08/12 19:24:34;;;;;;;6.40;4.30;;;;;;;21.42;61.75;99025.51;221217;1304;22572;-75
2023/08/12 19:29:36;;;;;;;6.80;4.90;;;;;;;21.31;62.01;99023.73;221476;1305;22609;-75
2023/08/12 19:34:38;;;;;;;8.00;5.90;;;;;;;21.20;62.40;99024.61;221457;1305;22572;-76
2023/08/12 19:39:41;;;;;;;9.20;6.20;;;;;;;21.11;62.85;99017.11;221549;1305;22639;-75
2023/08/12 19:44:43;;;;;;;5.90;5.30;;;;;;;21.03;63.31;99017.13;221549;1304;22993;-74
2023/08/12 19:49:45;;;;;;;10.20;6.60;;;;;;;20.98;63.45;99020.27;221651;1302;25462;-75
2023/08/12 19:54:47;;;;;;;6.70;6.00;;;;;;;20.92;63.95;99019.14;221682;1302;22580;-75
2023/08/12 19:59:49;;;;;;;7.00;6.00;;;;;;;20.87;64.20;99017.30;221575;1304;22571;-76
2023/08/12 20:04:51;;;;;;;7.40;5.50;;;;;;;20.80;64.37;99014.83;221523;1306;24285;-76
2023/08/12 20:09:53;;;;;;;8.10;5.70;;;;;;;20.72;64.69;99019.35;221509;1305;22689;-76
2023/08/12 20:14:55;;;;;;;9.00;5.30;;;;;;;20.68;64.93;99022.35;221358;1304;23299;-76
2023/08/12 20:19:58;;;;;;;9.30;5.80;;;;;;;20.64;65.14;99024.48;221632;1283;22601;-76
2023/08/12 20:25:00;;;;;;;9.30;6.10;;;;;;;20.59;65.37;99033.45;221617;1305;23577;-76
2023/08/12 20:30:03;;;;;;;6.70;6.00;;;;;;;20.51;65.56;99041.15;221438;1305;22576;-75
2023/08/12 20:35:09;;;;;;;9.60;6.20;;;;;;;20.41;65.78;99042.24;221485;1306;25996;-76
2023/08/12 20:40:11;;;;;;;10.00;6.30;;;;;;;20.33;66.01;99045.02;221543;1306;22598;-76
2023/08/12 20:45:14;;;;;;;9.10;6.70;;;;;;;20.26;66.26;99044.14;221350;1305;25262;-75
2023/08/12 20:50:16;;;;;;;7.60;6.80;;;;;;;20.18;66.29;99047.65;221649;1295;22576;-75
2023/08/12 20:55:18;;;;;;;11.30;7.20;;;;;;;20.08;66.52;99039.91;221533;1304;22575;-75
2023/08/12 21:00:20;;;;;;;8.60;6.70;;;;;;;19.96;66.66;99035.16;221579;1305;23700;-75
2023/08/12 21:05:23;;;;;;;9.70;8.00;;;;;;;19.85;67.04;99039.36;221649;1306;22673;-75
2023/08/12 21:10:28;;;;;;;9.90;6.80;;;;;;;19.73;67.38;99046.88;221507;1304;22621;-75
2023/08/12 21:15:31;;;;;;;11.00;7.20;;;;;;;19.64;67.66;99046.75;221569;1306;22583;-76
2023/08/12 21:20:33;;;;;;;10.10;7.20;;;;;;;19.56;67.94;99039.10;221257;1305;22568;-75
2023/08/12 21:25:35;;;;;;;10.10;7.10;;;;;;;19.48;68.13;99031.96;221513;1305;23871;-77
2023/08/12 21:30:38;;;;;;;10.00;7.30;;;;;;;19.38;68.42;99024.48;221467;1306;22581;-76
2023/08/12 21:35:40;;;;;;;11.00;7.40;;;;;;;19.29;68.56;99019.33;221560;1304;23841;-74
2023/08/12 21:40:42;;;;;;;7.70;6.90;;;;;;;19.19;68.93;99009.91;221398;1304;22588;-75
2023/08/12 21:45:44;;;;;;;7.20;6.50;;;;;;;19.10;69.27;99001.55;221590;1298;24271;-75
2023/08/12 21:50:46;;;;;;;9.50;7.30;;;;;;;19.03;69.60;99004.06;221600;1306;22563;-75
2023/08/12 21:55:49;;;;;;;9.90;7.20;;;;;;;18.97;69.92;99000.58;221307;1305;22665;-75
2023/08/12 22:00:51;;;;;;;12.10;7.40;;;;;;;18.91;70.20;98994.61;221551;1302;22696;-75
2023/08/12 22:05:52;;;;;;;7.40;6.50;;;;;;;18.86;70.47;98988.44;221262;1295;24248;-75
2023/08/12 22:10:54;;;;;;;6.90;6.20;;;;;;;18.80;70.81;98990.20;221497;1305;22598;-75
2023/08/12 22:15:58;;;;;;;7.10;6.40;;;;;;;18.76;71.12;98992.04;221491;1306;22598;-75
2023/08/12 22:21:00;;;;;;;6.50;5.90;;;;;;;18.73;71.40;99000.05;221479;1303;22559;-74
2023/08/12 22:26:03;;;;;;;7.60;6.30;;;;;;;18.74;71.86;99003.40;221570;1302;22599;-74
2023/08/12 22:31:06;;;;;;;10.80;6.40;;;;;;;18.77;72.08;99006.61;221602;1305;22679;-74
2023/08/12 22:36:10;;;;;;;8.60;6.70;;;;;;;18.74;72.13;99004.10;221555;1303;24050;-75
2023/08/12 22:41:12;;;;;;;8.30;6.90;;;;;;;18.69;72.28;99010.42;221471;1298;22568;-74
2023/08/12 22:46:14;;;;;;;8.60;7.80;;;;;;;18.63;72.53;99012.87;221423;1292;22494;-75
2023/08/12 22:51:17;;;;;;;9.80;8.10;;;;;;;18.57;72.62;99011.15;221122;1305;160354;-75
2023/08/12 22:56:19;;;;;;;8.70;7.70;;;;;;;18.49;72.74;99003.15;221464;1304;23247;-74
2023/08/12 23:01:21;;;;;;;8.70;7.60;;;;;;;18.40;72.81;99005.44;221476;1304;22565;-75
2023/08/12 23:06:23;;;;;;;7.80;7.00;;;;;;;18.29;73.11;99009.98;221560;1299;25394;-76
2023/08/12 23:11:29;;;;;;;9.00;7.70;;;;;;;18.21;73.55;99012.77;221380;1305;22710;-76
2023/08/12 23:16:31;;;;;;;8.20;7.30;;;;;;;18.14;73.65;99012.42;221555;1305;22575;-75
2023/08/12 23:21:33;;;;;;;9.00;7.90;;;;;;;18.07;73.85;99017.36;221327;1304;22792;-76